Houston Executive Airport


Codes: KTME/
Name: Houston Executive Airport
City: Houston
Country: United States
Elevation: 166 ft.

Photos at Houston Executive Airport


   Photos courtesy of SpottingLog. You can add your own sightings and photos by signing up for a free trial today.



No photos found.

Weather at Houston Executive Airport


Time (UTC)DescriptionTempratureWindCloud coverageVisibilityPressureHumidity
21-Feb-2024 03:00Clear Sky18°C9 mph, S0%10000m1021hPa83%
21-Feb-2024 06:00Clear Sky17°C7 mph, S0%10000m1022hPa87%
21-Feb-2024 09:00Clear Sky15°C7 mph, S1%10000m1022hPa92%
21-Feb-2024 12:00Clear Sky14°C7 mph, S7%10000m1022hPa98%
21-Feb-2024 15:00Few Clouds18°C11 mph, S23%10000m1022hPa88%
21-Feb-2024 18:00Few Clouds23°C16 mph, S17%10000m1021hPa61%
21-Feb-2024 21:00Clear Sky24°C18 mph, S0%10000m1017hPa58%
22-Feb-2024 00:00Clear Sky20°C16 mph, S0%10000m1016hPa79%
22-Feb-2024 03:00Scattered Clouds17°C16 mph, S29%10000m1015hPa92%
22-Feb-2024 06:00Broken Clouds19°C16 mph, S55%10000m1015hPa83%
22-Feb-2024 09:00Overcast Clouds19°C16 mph, S100%10000m1013hPa79%
22-Feb-2024 12:00Light Rain18°C9 mph, SW100%10000m1014hPa86%
22-Feb-2024 15:00Broken Clouds20°C13 mph, SW75%10000m1013hPa80%
22-Feb-2024 18:00Broken Clouds23°C16 mph, SW61%10000m1012hPa66%
22-Feb-2024 21:00Scattered Clouds26°C11 mph, SW27%10000m1010hPa54%
23-Feb-2024 00:00Few Clouds22°C7 mph, W14%10000m1009hPa58%
23-Feb-2024 03:00Scattered Clouds18°C7 mph, NW50%10000m1011hPa50%
23-Feb-2024 06:00Broken Clouds16°C9 mph, N75%10000m1012hPa52%
23-Feb-2024 09:00Overcast Clouds14°C9 mph, N95%10000m1013hPa66%
23-Feb-2024 12:00Broken Clouds13°C9 mph, N71%10000m1015hPa75%
23-Feb-2024 15:00Few Clouds16°C11 mph, N12%10000m1017hPa61%
23-Feb-2024 18:00Few Clouds21°C11 mph, N11%10000m1017hPa42%
23-Feb-2024 21:00Clear Sky22°C9 mph, N4%10000m1015hPa32%
24-Feb-2024 00:00Clear Sky17°C9 mph, NW2%10000m1016hPa50%
24-Feb-2024 03:00Scattered Clouds15°C7 mph, N34%10000m1019hPa48%
24-Feb-2024 06:00Broken Clouds14°C4 mph, NE64%10000m1019hPa45%
24-Feb-2024 09:00Overcast Clouds13°C4 mph, NE92%10000m1019hPa48%
24-Feb-2024 12:00Overcast Clouds13°C4 mph, SE96%10000m1020hPa49%
24-Feb-2024 15:00Overcast Clouds16°C4 mph, S97%10000m1022hPa48%
24-Feb-2024 18:00Broken Clouds22°C4 mph, S82%10000m1022hPa33%
24-Feb-2024 21:00Scattered Clouds23°C7 mph, S42%10000m1020hPa31%
25-Feb-2024 00:00Few Clouds19°C9 mph, S21%10000m1019hPa55%
25-Feb-2024 03:00Clear Sky14°C9 mph, S0%10000m1021hPa63%
25-Feb-2024 06:00Clear Sky13°C7 mph, S0%10000m1020hPa73%
25-Feb-2024 09:00Broken Clouds13°C7 mph, S54%10000m1019hPa84%
25-Feb-2024 12:00Scattered Clouds13°C7 mph, S34%10000m1018hPa91%
25-Feb-2024 15:00Clear Sky18°C13 mph, S3%10000m1019hPa76%
25-Feb-2024 18:00Clear Sky23°C18 mph, S6%10000m1017hPa55%
25-Feb-2024 21:00Scattered Clouds23°C18 mph, S48%10000m1014hPa60%
26-Feb-2024 00:00Broken Clouds20°C13 mph, S69%10000m1015hPa76%